Time;durP1;ratioP1;P1;durP2;ratioP2;P2;SDS_P1;SDS_P2;PMS_P1;PMS_P2;Temp;Humidity;BMP_temperature;BMP_pressure;BME280_temperature;BME280_humidity;BME280_pressure;Samples;Min_cycle;Max_cycle;Signal;HPM_P1;HPM_P2
2022/01/30 00:02:26;;;;;;;;;5.00;5.00;;;;;11.50;100.00;102892.41;5061397;28;45414;-80
2022/01/30 00:04:51;;;;;;;;;5.50;5.50;;;;;11.49;100.00;102885.41;5061240;28;45635;-80
2022/01/30 00:07:17;;;;;;;;;4.25;4.25;;;;;11.50;100.00;102897.59;5078608;27;45353;-80
2022/01/30 00:09:43;;;;;;;;;4.25;4.25;;;;;11.52;100.00;102898.59;5060423;28;45481;-80
2022/01/30 00:12:09;;;;;;;;;7.50;5.75;;;;;11.50;100.00;102898.47;5078934;28;45321;-80
2022/01/30 00:14:37;;;;;;;;;5.50;4.00;;;;;11.50;100.00;102895.00;5079255;27;45905;-80
2022/01/30 00:17:13;;;;;;;;;7.75;4.50;;;;;11.51;100.00;102896.78;5078609;28;46343;-81
2022/01/30 00:19:46;;;;;;;;;6.75;6.75;;;;;11.50;100.00;102903.66;5078842;28;45969;-80
2022/01/30 00:24:55;;;;;;;;;4.75;4.75;;;;;11.51;100.00;102896.78;5079045;28;45237;-80
2022/01/30 00:27:28;;;;;;;;;4.75;4.25;;;;;11.50;100.00;102898.47;5060189;28;46259;-81
2022/01/30 00:29:54;;;;;;;;;5.75;5.75;;;;;11.48;100.00;102884.50;5079142;28;45929;-81
2022/01/30 00:32:20;;;;;;;;;9.25;6.50;;;;;11.48;100.00;102881.91;5078626;27;45352;-80
2022/01/30 00:34:45;;;;;;;;;5.50;5.50;;;;;11.43;100.00;102885.84;5072268;28;45438;-80
2022/01/30 00:37:11;;;;;;;;;6.75;6.50;;;;;11.39;100.00;102894.19;5057867;28;45605;-81
2022/01/30 00:39:37;;;;;;;;;7.75;7.00;;;;;11.33;100.00;102889.44;5058817;28;45422;-79
2022/01/30 00:42:03;;;;;;;;;5.50;5.00;;;;;11.33;100.00;102888.56;5078160;28;45354;-80
2022/01/30 00:44:29;;;;;;;;;7.00;5.50;;;;;11.28;100.00;102880.44;5078130;27;45577;-79
2022/01/30 00:46:56;;;;;;;;;6.50;6.50;;;;;11.25;100.00;102880.19;5078661;28;46109;-80
2022/01/30 00:49:22;;;;;;;;;6.25;6.00;;;;;11.19;100.00;102866.75;5078050;27;45273;-80
2022/01/30 00:51:48;;;;;;;;;7.00;6.00;;;;;11.15;100.00;102870.78;5060355;28;45374;-80
2022/01/30 00:54:13;;;;;;;;;5.50;4.75;;;;;11.10;100.00;102874.75;5078620;27;45442;-80
2022/01/30 00:56:39;;;;;;;;;8.75;7.75;;;;;11.05;100.00;102877.00;5078561;27;46101;-80
2022/01/30 00:59:05;;;;;;;;;6.00;6.00;;;;;11.03;100.00;102880.22;5078049;28;45407;-80
2022/01/30 01:01:32;;;;;;;;;8.00;6.25;;;;;11.00;100.00;102870.53;5076957;27;45274;-79
2022/01/30 01:03:58;;;;;;;;;8.00;4.75;;;;;10.99;100.00;102867.06;5078653;28;45343;-80
2022/01/30 01:06:24;;;;;;;;;8.75;7.50;;;;;11.03;100.00;102864.69;5078333;27;47362;-80
2022/01/30 01:08:54;;;;;;;;;4.00;4.00;;;;;11.07;100.00;102848.59;5077986;27;45398;-80
2022/01/30 01:14:06;;;;;;;;;9.25;7.25;;;;;11.05;100.00;102855.34;5078377;28;45448;-80
2022/01/30 01:24:43;;;;;;;;;7.00;7.00;;;;;11.02;100.00;102848.22;5077359;28;45327;-79
2022/01/30 01:27:09;;;;;;;;;7.00;6.50;;;;;11.07;100.00;102852.06;5059350;28;46990;-79
2022/01/30 01:29:35;;;;;;;;;8.25;7.00;;;;;11.11;100.00;102848.94;5077890;28;45299;-80
2022/01/30 01:32:00;;;;;;;;;5.75;5.75;;;;;11.18;100.00;102846.78;5077626;27;45378;-80
2022/01/30 01:34:32;;;;;;;;;6.00;6.00;;;;;11.18;100.00;102844.19;5078303;28;45360;-80
2022/01/30 01:36:58;;;;;;;;;6.00;6.00;;;;;11.20;100.00;102834.84;5077665;28;45472;-80
2022/01/30 01:39:24;;;;;;;;;7.00;6.25;;;;;11.23;100.00;102840.25;5077846;28;45912;-80
2022/01/30 01:41:50;;;;;;;;;8.75;7.50;;;;;11.24;100.00;102840.38;5077788;27;45331;-78
2022/01/30 01:44:20;;;;;;;;;12.00;8.00;;;;;11.24;100.00;102842.06;5076858;27;45254;-80
2022/01/30 01:46:47;;;;;;;;;9.00;9.00;;;;;11.25;100.00;102851.66;5058985;27;45467;-79
2022/01/30 01:49:19;;;;;;;;;10.25;7.00;;;;;11.26;100.00;102859.53;5077079;27;45263;-80
2022/01/30 01:51:50;;;;;;;;;8.00;7.25;;;;;11.31;100.00;102854.69;5079419;27;45402;-80
2022/01/30 01:54:16;;;;;;;;;10.50;9.00;;;;;11.30;100.00;102850.31;5078292;28;45374;-78
2022/01/30 01:56:42;;;;;;;;;7.00;7.00;;;;;11.29;100.00;102856.28;5077373;27;45593;-80
2022/01/30 01:59:07;;;;;;;;;6.00;6.00;;;;;11.30;100.00;102861.59;5077140;27;45951;-79
2022/01/30 02:01:33;;;;;;;;;8.00;5.50;;;;;11.29;100.00;102848.50;5077271;28;45369;-79
2022/01/30 02:03:59;;;;;;;;;7.50;7.50;;;;;11.30;100.00;102851.22;5077658;28;45448;-77
2022/01/30 02:06:26;;;;;;;;;10.50;8.50;;;;;11.30;100.00;102859.00;5077213;27;45485;-80
2022/01/30 02:08:59;;;;;;;;;7.75;7.00;;;;;11.28;100.00;102852.78;5077290;28;45702;-80
2022/01/30 02:11:45;;;;;;;;;9.25;8.00;;;;;11.33;100.00;102844.47;5060061;28;45311;-80
2022/01/30 02:25:21;;;;;;;;;7.50;6.00;;;;;11.35;100.00;102842.84;5056979;28;45379;-80
2022/01/30 02:27:47;;;;;;;;;8.00;6.50;;;;;11.35;100.00;102836.00;5076845;28;45329;-80
2022/01/30 02:30:18;;;;;;;;;9.75;8.50;;;;;11.38;100.00;102841.44;5076402;27;45231;-80
2022/01/30 02:32:44;;;;;;;;;9.25;7.75;;;;;11.39;100.00;102839.72;5077352;27;45556;-80
2022/01/30 02:35:09;;;;;;;;;7.50;7.50;;;;;11.38;100.00;102844.03;5077016;27;45616;-80
2022/01/30 02:37:35;;;;;;;;;8.75;8.75;;;;;11.41;100.00;102841.63;5076591;27;45917;-81
2022/01/30 02:40:06;;;;;;;;;10.75;8.25;;;;;11.40;100.00;102839.81;5076369;28;45797;-81
2022/01/30 02:42:34;;;;;;;;;11.50;8.25;;;;;11.41;100.00;102835.56;5058763;28;45329;-80
2022/01/30 02:45:03;;;;;;;;;12.50;8.00;;;;;11.37;100.00;102850.00;5073663;28;45371;-80
2022/01/30 02:52:35;;;;;;;;;9.75;9.75;;;;;11.35;100.00;102840.25;5076582;28;45482;-80
2022/01/30 02:55:01;;;;;;;;;9.75;9.75;;;;;11.35;100.00;102843.78;5076623;28;45497;-80
2022/01/30 02:57:27;;;;;;;;;11.25;11.25;;;;;11.37;100.00;102851.66;5076610;27;45824;-80
2022/01/30 02:59:52;;;;;;;;;9.75;9.75;;;;;11.38;100.00;102848.28;5076370;27;45295;-80
2022/01/30 03:02:18;;;;;;;;;12.75;8.25;;;;;11.41;100.00;102844.22;5076348;28;45415;-81
2022/01/30 03:04:43;;;;;;;;;12.50;9.00;;;;;11.36;100.00;102839.47;5074747;28;45402;-81
2022/01/30 03:07:09;;;;;;;;;8.75;7.00;;;;;11.33;100.00;102849.66;5074142;27;45583;-78
2022/01/30 03:09:35;;;;;;;;;13.50;9.25;;;;;11.36;100.00;102852.44;5076193;28;45340;-81
2022/01/30 03:12:02;;;;;;;;;8.25;7.75;;;;;11.38;100.00;102856.06;5074787;27;45410;-81
2022/01/30 03:14:28;;;;;;;;;12.25;7.75;;;;;11.39;100.00;102839.72;5077037;28;45481;-80
2022/01/30 03:16:54;;;;;;;;;11.00;8.75;;;;;11.37;100.00;102850.00;5076861;28;46081;-81
2022/01/30 03:19:20;;;;;;;;;10.50;9.00;;;;;11.36;100.00;102847.25;5077340;28;45370;-80
2022/01/30 03:21:46;;;;;;;;;12.00;8.25;;;;;11.36;100.00;102843.00;5077095;27;45307;-79
2022/01/30 03:24:11;;;;;;;;;7.00;5.75;;;;;11.41;100.00;102848.53;5057888;28;45406;-80
2022/01/30 03:26:39;;;;;;;;;10.75;8.25;;;;;11.42;100.00;102842.56;5057668;28;47591;-79
2022/01/30 03:29:07;;;;;;;;;12.25;9.75;;;;;11.43;100.00;102846.94;5075831;27;45852;-80
2022/01/30 03:31:38;;;;;;;;;8.25;7.25;;;;;11.42;100.00;102851.22;5076995;28;45256;-79
2022/01/30 03:34:07;;;;;;;;;8.75;8.75;;;;;11.42;100.00;102852.94;5079808;27;45342;-79
2022/01/30 03:36:33;;;;;;;;;11.75;9.75;;;;;11.43;100.00;102849.53;5079474;27;45909;-79
2022/01/30 03:38:59;;;;;;;;;13.50;9.00;;;;;11.42;100.00;102851.22;5079660;28;45343;-78
2022/01/30 03:41:26;;;;;;;;;10.25;9.25;;;;;11.42;100.00;102856.41;5080018;28;45436;-80
2022/01/30 03:43:52;;;;;;;;;8.75;8.50;;;;;11.43;100.00;102849.53;5079563;27;45228;-79
2022/01/30 03:46:19;;;;;;;;;8.50;7.50;;;;;11.45;100.00;102845.34;5060270;27;45433;-79
2022/01/30 03:48:45;;;;;;;;;10.75;8.75;;;;;11.45;100.00;102846.28;5044755;28;45341;-80
2022/01/30 03:51:11;;;;;;;;;7.00;6.75;;;;;11.46;100.00;102840.28;5060182;28;45442;-80
2022/01/30 03:53:36;;;;;;;;;11.50;11.00;;;;;11.50;100.00;102848.31;5059453;28;45543;-79
2022/01/30 03:56:04;;;;;;;;;13.50;11.25;;;;;11.51;100.00;102844.91;5058215;28;45986;-80
2022/01/30 03:58:30;;;;;;;;;11.25;8.25;;;;;11.53;100.00;102836.47;5069480;28;45701;-79
2022/01/30 04:00:55;;;;;;;;;4.25;4.00;;;;;11.57;100.00;102842.78;5079575;28;45375;-80
2022/01/30 04:03:21;;;;;;;;;10.25;8.75;;;;;11.58;100.00;102837.69;5079284;27;45222;-80
2022/01/30 04:05:46;;;;;;;;;12.50;8.75;;;;;11.60;100.00;102854.28;5060864;28;46745;-80
2022/01/30 04:08:12;;;;;;;;;9.50;8.00;;;;;11.62;100.00;102859.56;5078828;27;45443;-79
2022/01/30 04:10:39;;;;;;;;;13.00;8.50;;;;;11.65;100.00;102861.50;5079013;27;45491;-81
2022/01/30 04:13:05;;;;;;;;;12.25;10.75;;;;;11.66;100.00;102852.94;5079477;27;45522;-80
2022/01/30 04:15:31;;;;;;;;;13.00;7.50;;;;;11.69;100.00;102859.25;5080626;27;45346;-80
2022/01/30 04:17:57;;;;;;;;;8.25;7.50;;;;;11.69;100.00;102859.25;5082213;28;45350;-81
2022/01/30 04:20:22;;;;;;;;;9.25;7.00;;;;;11.73;100.00;102857.78;5080338;27;45331;-80
2022/01/30 04:22:48;;;;;;;;;7.75;5.25;;;;;11.73;100.00;102853.47;5079297;28;45570;-80
2022/01/30 04:25:15;;;;;;;;;9.00;6.00;;;;;11.73;100.00;102847.41;5078919;28;45377;-80
2022/01/30 04:27:41;;;;;;;;;6.00;4.50;;;;;11.74;100.00;102867.38;5078799;28;45832;-81
2022/01/30 04:30:09;;;;;;;;;6.00;4.00;;;;;11.73;100.00;102874.22;5060224;28;45603;-80
2022/01/30 04:32:40;;;;;;;;;7.25;6.00;;;;;11.74;100.00;102872.56;5076758;28;45474;-80
2022/01/30 04:35:12;;;;;;;;;7.75;7.00;;;;;11.76;100.00;102866.69;5067002;28;45332;-80
2022/01/30 04:38:04;;;;;;;;;6.00;4.50;;;;;11.73;100.00;102865.56;5058232;28;45351;-81
2022/01/30 04:41:00;;;;;;;;;5.50;4.50;;;;;11.72;100.00;102869.81;5058203;28;45387;-81
2022/01/30 04:55:22;;;;;;;;;4.00;3.00;;;;;11.68;100.00;102877.28;5078666;28;45299;-81
2022/01/30 05:00:19;;;;;;;;;3.75;2.25;;;;;11.68;100.00;102887.66;5078566;28;45440;-80
2022/01/30 05:02:59;;;;;;;;;2.75;1.75;;;;;11.68;100.00;102890.25;5078338;27;45513;-81
2022/01/30 05:08:06;;;;;;;;;5.00;3.25;;;;;11.66;100.00;102884.97;5077838;27;45299;-81
2022/01/30 05:10:32;;;;;;;;;3.25;2.00;;;;;11.65;100.00;102882.25;5059772;28;45324;-81
2022/01/30 05:13:01;;;;;;;;;3.75;2.25;;;;;11.63;100.00;102892.50;5078702;28;45369;-80
2022/01/30 05:15:28;;;;;;;;;7.00;4.75;;;;;11.62;100.00;102893.28;5078690;28;45407;-81
2022/01/30 05:17:54;;;;;;;;;4.75;3.00;;;;;11.61;100.00;102900.19;5078431;27;46203;-80
2022/01/30 05:20:20;;;;;;;;;3.75;2.50;;;;;11.60;100.00;102900.97;5077712;28;45246;-81
2022/01/30 05:22:46;;;;;;;;;3.00;3.00;;;;;11.61;100.00;102894.06;5078170;27;45387;-80
2022/01/30 05:25:13;;;;;;;;;2.25;2.25;;;;;11.58;100.00;102886.09;5078137;28;45577;-81
2022/01/30 05:27:39;;;;;;;;;5.25;2.25;;;;;11.58;100.00;102893.88;5077664;27;46182;-81
2022/01/30 05:30:06;;;;;;;;;2.50;2.50;;;;;11.56;100.00;102895.44;5077402;27;45368;-81
2022/01/30 05:32:33;;;;;;;;;1.25;1.25;;;;;11.52;100.00;102909.88;5077032;27;45423;-81
2022/01/30 05:34:59;;;;;;;;;2.75;2.75;;;;;11.51;100.00;102910.66;5078219;28;45333;-79
2022/01/30 05:37:25;;;;;;;;;2.25;2.25;;;;;11.50;100.00;102921.84;5077976;27;45308;-81
2022/01/30 05:39:51;;;;;;;;;4.75;2.75;;;;;11.51;100.00;102912.34;5077601;27;45177;-81
2022/01/30 05:42:19;;;;;;;;;3.50;3.50;;;;;11.50;100.00;102919.25;5077496;27;45403;-82
2022/01/30 05:47:25;;;;;;;;;4.25;2.25;;;;;11.45;100.00;102917.97;5077893;28;45936;-81
2022/01/30 05:49:51;;;;;;;;;2.00;2.00;;;;;11.42;100.00;102918.66;5077652;27;45453;-81
2022/01/30 05:52:17;;;;;;;;;6.50;6.00;;;;;11.43;100.00;102916.97;5077225;28;45387;-81
2022/01/30 05:54:43;;;;;;;;;3.50;3.00;;;;;11.42;100.00;102921.25;5076665;27;45239;-81
2022/01/30 05:57:08;;;;;;;;;2.75;2.25;;;;;11.40;100.00;102909.84;5077094;28;45435;-81
2022/01/30 05:59:34;;;;;;;;;4.50;4.25;;;;;11.38;100.00;102914.03;5077381;28;45287;-81
2022/01/30 06:01:59;;;;;;;;;8.75;4.75;;;;;11.35;100.00;102912.88;5079018;28;45417;-80
2022/01/30 06:04:25;;;;;;;;;5.50;4.75;;;;;11.33;100.00;102922.25;5079707;28;45275;-81
2022/01/30 06:06:53;;;;;;;;;5.25;3.75;;;;;11.29;100.00;102919.44;5077861;28;46061;-80
2022/01/30 06:09:19;;;;;;;;;3.00;2.00;;;;;11.23;100.00;102923.25;5077326;27;45848;-81
2022/01/30 06:11:50;;;;;;;;;4.25;3.00;;;;;11.17;100.00;102927.97;5077685;28;45493;-81
2022/01/30 06:14:22;;;;;;;;;5.00;3.00;;;;;11.13;100.00;102924.22;5058828;28;45638;-81
2022/01/30 06:16:53;;;;;;;;;7.00;5.25;;;;;11.12;100.00;102933.69;5076811;27;45268;-82
2022/01/30 06:19:19;;;;;;;;;5.25;4.25;;;;;11.12;100.00;102933.69;5076889;28;45756;-81
2022/01/30 06:21:45;;;;;;;;;6.00;4.50;;;;;11.13;100.00;102937.19;5076957;28;45191;-80
2022/01/30 06:24:11;;;;;;;;;4.50;4.00;;;;;11.11;100.00;102938.78;5040060;28;45579;-81
2022/01/30 06:26:37;;;;;;;;;7.75;6.50;;;;;11.08;100.00;102939.41;5056523;28;45323;-80
2022/01/30 06:29:02;;;;;;;;;4.00;2.50;;;;;11.06;100.00;102941.00;5056294;28;45507;-81
2022/01/30 06:31:28;;;;;;;;;2.00;2.00;;;;;11.03;100.00;102950.22;5056948;28;45258;-81
2022/01/30 06:33:54;;;;;;;;;4.00;3.00;;;;;11.00;100.00;102948.28;5069861;28;45501;-80
2022/01/30 06:36:20;;;;;;;;;4.25;2.50;;;;;10.95;100.00;102950.53;5076316;27;45976;-82
2022/01/30 06:38:47;;;;;;;;;5.00;4.00;;;;;10.84;100.00;102941.94;5077012;28;45458;-81
2022/01/30 06:41:15;;;;;;;;;5.75;4.75;;;;;10.78;100.00;102945.72;5076605;28;45406;-81
2022/01/30 06:43:40;;;;;;;;;5.00;4.00;;;;;10.73;100.00;102939.28;5077057;28;45209;-80
2022/01/30 06:46:10;;;;;;;;;3.75;3.00;;;;;10.70;100.00;102939.94;5076361;28;46002;-80
2022/01/30 06:48:35;;;;;;;;;7.25;4.00;;;;;10.65;100.00;102952.53;5076280;28;45437;-81
2022/01/30 06:51:01;;;;;;;;;10.25;3.50;;;;;10.63;100.00;102948.03;5076458;28;45400;-81
2022/01/30 06:53:26;;;;;;;;;6.75;3.00;;;;;10.59;100.00;102951.13;5077368;28;45425;-81
2022/01/30 06:55:52;;;;;;;;;5.75;3.25;;;;;10.54;100.00;102958.56;5076475;28;45922;-80
2022/01/30 06:58:18;;;;;;;;;5.50;4.00;;;;;10.51;100.00;102953.13;5076152;28;45430;-81
2022/01/30 07:00:44;;;;;;;;;3.00;3.00;;;;;10.49;100.00;102957.25;5076698;28;45418;-81
2022/01/30 07:03:10;;;;;;;;;6.50;5.00;;;;;10.48;100.00;102951.19;5076523;28;45569;-81
2022/01/30 07:05:35;;;;;;;;;5.25;4.00;;;;;10.46;100.00;102952.75;5055795;27;47753;-81
2022/01/30 07:08:01;;;;;;;;;5.50;3.75;;;;;10.42;100.00;102950.69;5078331;28;45244;-81
2022/01/30 07:10:26;;;;;;;;;3.50;2.00;;;;;10.38;100.00;102957.31;5087741;28;45220;-80
2022/01/30 07:12:52;;;;;;;;;3.50;3.50;;;;;10.35;100.00;102959.66;5075996;28;45271;-81
2022/01/30 07:15:18;;;;;;;;;4.75;3.25;;;;;10.33;100.00;102960.28;5075719;28;45344;-82
2022/01/30 07:17:43;;;;;;;;;10.00;7.50;;;;;10.28;100.00;102965.09;5076340;28;45378;-83
2022/01/30 07:20:10;;;;;;;;;7.25;3.50;;;;;10.27;100.00;102963.28;5076119;27;45366;-82
2022/01/30 07:22:36;;;;;;;;;4.00;2.50;;;;;10.26;100.00;102968.34;5058001;28;45346;-81
2022/01/30 07:25:03;;;;;;;;;6.50;3.50;;;;;10.25;100.00;102975.22;5075723;28;45957;-81
2022/01/30 07:27:28;;;;;;;;;5.00;3.00;;;;;10.26;100.00;102969.22;5076404;28;45756;-79
2022/01/30 07:29:54;;;;;;;;;5.75;4.00;;;;;10.24;100.00;102976.00;5076432;28;45399;-80
2022/01/30 07:32:20;;;;;;;;;2.75;2.75;;;;;10.22;100.00;102981.03;5074149;28;45332;-79
2022/01/30 07:34:49;;;;;;;;;6.50;4.25;;;;;10.24;100.00;102988.94;5055578;28;46043;-81
2022/01/30 07:37:16;;;;;;;;;12.00;7.00;;;;;10.28;100.00;102990.97;5055529;28;45411;-80
2022/01/30 07:39:42;;;;;;;;;6.75;3.75;;;;;10.32;100.00;103000.81;5037926;28;45525;-81
2022/01/30 07:42:08;;;;;;;;;4.00;2.00;;;;;10.33;100.00;102996.53;5055922;28;45485;-81
2022/01/30 07:44:34;;;;;;;;;3.00;3.00;;;;;10.34;100.00;102999.25;5055749;28;46111;-82
2022/01/30 07:47:00;;;;;;;;;6.50;5.00;;;;;10.34;100.00;102995.75;5056322;28;45364;-81
2022/01/30 07:49:26;;;;;;;;;3.75;3.75;;;;;10.31;100.00;102999.00;5057649;28;45485;-81
2022/01/30 07:51:53;;;;;;;;;6.50;6.50;;;;;10.31;100.00;103001.59;5040574;28;45335;-81
2022/01/30 07:54:19;;;;;;;;;7.75;5.50;;;;;10.31;100.00;103001.59;5054337;28;46181;-81
2022/01/30 07:56:45;;;;;;;;;8.00;5.00;;;;;10.34;100.00;103011.28;5074812;28;45572;-82
2022/01/30 07:59:11;;;;;;;;;6.25;5.75;;;;;10.35;100.00;103008.84;5056619;28;45445;-82
2022/01/30 08:01:36;;;;;;;;;9.50;7.50;;;;;10.35;100.00;103013.09;5075559;27;45613;-81
2022/01/30 08:04:03;;;;;;;;;8.25;7.00;;;;;10.35;100.00;103010.50;5057144;28;46886;-82
2022/01/30 08:06:30;;;;;;;;;13.50;5.75;;;;;10.35;100.00;103018.28;5076045;27;45844;-81
2022/01/30 08:08:55;;;;;;;;;7.50;6.50;;;;;10.35;100.00;103021.78;5075462;28;45320;-82
2022/01/30 08:11:21;;;;;;;;;6.25;5.00;;;;;10.33;100.00;103027.59;5075429;27;45214;-80
2022/01/30 08:13:46;;;;;;;;;6.00;3.75;;;;;10.32;100.00;103023.19;5064740;28;46675;-81
2022/01/30 08:16:12;;;;;;;;;6.00;4.00;;;;;10.30;100.00;103025.66;5074648;27;45297;-80
2022/01/30 08:18:38;;;;;;;;;7.25;4.00;;;;;10.29;100.00;103023.84;5074679;28;45326;-82
2022/01/30 08:21:05;;;;;;;;;6.25;4.50;;;;;10.29;100.00;103028.16;5077960;28;45579;-79
2022/01/30 08:23:33;;;;;;;;;7.00;5.50;;;;;10.23;100.00;103021.66;5079168;27;46178;-81
2022/01/30 08:25:59;;;;;;;;;9.75;5.25;;;;;10.22;100.00;103024.16;5062508;28;45971;-82
2022/01/30 08:28:25;;;;;;;;;6.50;6.50;;;;;10.20;100.00;103029.19;5078577;28;45392;-82
2022/01/30 08:30:51;;;;;;;;;6.75;5.00;;;;;10.18;100.00;103028.19;5078922;28;45556;-79
2022/01/30 08:33:17;;;;;;;;;4.25;3.25;;;;;10.13;100.00;103019.09;5079429;27;46176;-83
2022/01/30 08:35:45;;;;;;;;;7.50;5.00;;;;;10.10;100.00;103020.53;5080573;28;45381;-84
2022/01/30 08:38:12;;;;;;;;;8.00;6.00;;;;;10.10;100.00;103016.25;5061838;28;45346;-81
2022/01/30 08:40:38;;;;;;;;;9.25;6.00;;;;;10.14;100.00;103020.91;5079657;28;45429;-84
2022/01/30 08:43:04;;;;;;;;;7.75;6.75;;;;;10.18;100.00;103014.31;5078498;28;45925;-80
2022/01/30 08:45:30;;;;;;;;;8.50;8.50;;;;;10.21;100.00;103017.16;5079163;27;45292;-80
2022/01/30 08:47:55;;;;;;;;;8.75;7.25;;;;;10.24;100.00;103012.25;5082971;28;45172;-83
2022/01/30 08:50:21;;;;;;;;;9.75;7.00;;;;;10.26;100.00;103021.00;5079808;27;45468;-81
2022/01/30 08:52:48;;;;;;;;;11.25;9.00;;;;;10.26;100.00;103017.53;5072791;27;46492;-83
2022/01/30 08:55:16;;;;;;;;;11.00;9.25;;;;;10.27;100.00;103020.22;5054346;28;45244;-85
2022/01/30 08:57:42;;;;;;;;;11.75;8.00;;;;;10.29;100.00;103028.16;5083106;27;45317;-83
2022/01/30 09:00:14;;;;;;;;;11.25;7.25;;;;;10.29;100.00;103023.84;5068412;28;45683;-91
2022/01/30 09:02:40;;;;;;;;;14.25;8.50;;;;;10.30;100.00;103023.09;5062485;28;46702;-81
2022/01/30 09:05:07;;;;;;;;;9.25;4.00;;;;;10.32;100.00;103024.13;5077582;27;45409;-80
2022/01/30 09:07:33;;;;;;;;;24.75;15.00;;;;;10.31;100.00;103022.31;5076649;28;45560;-82
2022/01/30 09:09:59;;;;;;;;;12.25;11.25;;;;;10.33;100.00;103025.94;5058526;28;45628;-78
2022/01/30 09:12:28;;;;;;;;;13.50;10.00;;;;;10.36;100.00;103017.50;5077638;27;45490;-84
2022/01/30 09:14:54;;;;;;;;;12.00;7.75;;;;;10.38;100.00;103023.75;5077798;28;45725;-84
2022/01/30 09:17:22;;;;;;;;;11.25;10.00;;;;;10.35;100.00;103021.78;5077690;27;45519;-83
2022/01/30 09:19:48;;;;;;;;;9.00;7.00;;;;;10.42;100.00;103022.31;5060459;28;45505;-84
2022/01/30 09:22:17;;;;;;;;;9.75;6.75;;;;;10.43;100.00;103019.84;5058350;28;47427;-81
2022/01/30 09:24:45;;;;;;;;;9.75;5.75;;;;;10.49;100.00;103027.19;5067330;28;45208;-86
2022/01/30 09:27:11;;;;;;;;;6.75;6.00;;;;;10.52;99.81;103030.03;5079244;28;45379;-87
2022/01/30 09:29:38;;;;;;;;;7.25;6.00;;;;;10.54;98.52;103025.91;5079380;27;46525;-87
2022/01/30 09:32:06;;;;;;;;;5.50;4.25;;;;;10.54;98.03;103031.06;5084544;27;46272;-85
2022/01/30 09:34:33;;;;;;;;;6.00;6.00;;;;;10.54;96.62;103038.84;5088522;28;45803;-87
2022/01/30 09:36:59;;;;;;;;;5.50;5.00;;;;;10.53;97.27;103037.91;5062214;28;45413;-79
2022/01/30 09:39:26;;;;;;;;;7.50;7.25;;;;;10.56;98.11;103038.97;5078696;28;45459;-79
2022/01/30 09:41:53;;;;;;;;;10.50;7.75;;;;;10.58;97.93;103043.50;5075440;27;45542;-81
2022/01/30 09:44:25;;;;;;;;;7.25;5.50;;;;;10.57;98.17;103036.50;5056524;28;45758;-82
2022/01/30 09:46:51;;;;;;;;;6.00;4.50;;;;;10.59;98.24;103039.22;5057634;28;45435;-80
2022/01/30 09:49:21;;;;;;;;;6.50;3.75;;;;;10.58;96.59;103045.16;5055256;28;45391;-79
2022/01/30 09:51:47;;;;;;;;;3.75;3.50;;;;;10.56;95.84;103049.31;5057171;28;45636;-79
2022/01/30 09:54:13;;;;;;;;;6.50;4.75;;;;;10.53;94.73;103050.88;5056567;28;45229;-79
2022/01/30 09:56:39;;;;;;;;;6.50;6.00;;;;;10.52;95.40;103043.91;5057363;28;45292;-81
2022/01/30 09:59:05;;;;;;;;;13.00;12.00;;;;;10.53;96.32;103039.63;5038853;28;45347;-80
2022/01/30 10:01:33;;;;;;;;;3.25;3.25;;;;;10.55;93.00;103039.72;5039726;28;45440;-80
2022/01/30 10:04:00;;;;;;;;;6.00;5.50;;;;;10.55;94.22;103050.09;5037966;28;45830;-79
2022/01/30 10:06:32;;;;;;;;;6.50;6.50;;;;;10.54;95.87;103044.03;5057084;28;45382;-82
2022/01/30 10:09:05;;;;;;;;;5.50;5.50;;;;;10.56;95.77;103045.06;5057268;28;45462;-79
2022/01/30 10:11:59;;;;;;;;;12.75;7.75;;;;;10.60;95.29;103041.03;5055798;28;45429;-76
2022/01/30 10:14:25;;;;;;;;;5.00;4.00;;;;;10.59;94.38;103045.28;5056939;28;45957;-80
2022/01/30 10:16:51;;;;;;;;;7.25;5.00;;;;;10.61;95.59;103042.84;5056382;28;45407;-81
2022/01/30 10:19:22;;;;;;;;;8.50;3.75;;;;;10.60;95.51;103047.09;5073525;28;45597;-79
2022/01/30 10:21:49;;;;;;;;;7.25;7.25;;;;;10.62;95.38;103034.28;5076356;28;45328;-78
2022/01/30 10:24:26;;;;;;;;;7.75;5.25;;;;;10.67;95.52;103045.91;5076607;28;45262;-77
2022/01/30 10:26:55;;;;;;;;;11.50;7.00;;;;;10.71;96.44;103044.47;5075648;27;45353;-78
2022/01/30 10:29:29;;;;;;;;;6.25;6.00;;;;;10.74;95.02;103043.06;5076972;28;45281;-77
2022/01/30 10:32:04;;;;;;;;;7.00;4.25;;;;;10.74;94.54;103031.75;5065245;28;46461;-76
2022/01/30 10:34:30;;;;;;;;;4.00;4.00;;;;;10.75;93.00;103038.75;5056370;28;45868;-80
2022/01/30 10:37:13;;;;;;;;;11.75;4.00;;;;;10.74;93.22;103034.34;5038585;28;45419;-81
2022/01/30 10:40:09;;;;;;;;;12.75;5.75;;;;;10.73;93.14;103033.47;5056432;28;45980;-81
2022/01/30 10:42:42;;;;;;;;;6.50;5.75;;;;;10.77;94.36;103035.50;5036376;28;46369;-80
2022/01/30 10:45:17;;;;;;;;;7.25;7.00;;;;;10.81;95.06;103037.56;5037697;28;45343;-76
2022/01/30 10:47:43;;;;;;;;;8.00;7.00;;;;;10.86;95.15;103031.81;5055727;28;45427;-80
2022/01/30 10:50:19;;;;;;;;;8.50;5.75;;;;;10.86;96.12;103024.97;5037584;28;45364;-80
2022/01/30 10:53:02;;;;;;;;;13.50;10.50;;;;;10.91;95.57;103028.81;5055915;28;46049;-80
2022/01/30 10:55:35;;;;;;;;;5.50;4.00;;;;;10.96;94.77;103039.59;5038030;28;45688;-83
2022/01/30 10:58:02;;;;;;;;;4.25;4.00;;;;;11.00;93.44;103044.19;5055663;28;45418;-80
2022/01/30 11:00:39;;;;;;;;;12.75;7.25;;;;;11.01;91.68;103034.75;5056671;28;45517;-82
2022/01/30 11:03:05;;;;;;;;;7.50;5.00;;;;;11.02;91.70;103032.28;5037639;28;45461;-80
2022/01/30 11:05:33;;;;;;;;;8.75;6.00;;;;;11.05;91.09;103032.53;5055486;28;45432;-81
2022/01/30 11:07:59;;;;;;;;;8.00;6.25;;;;;11.06;89.53;103028.22;5056794;28;45411;-78
2022/01/30 11:10:26;;;;;;;;;7.75;7.25;;;;;11.05;91.77;103024.75;5055673;28;45553;-80
2022/01/30 11:13:07;;;;;;;;;8.50;6.25;;;;;11.11;89.46;103030.41;5037182;28;47761;-80
2022/01/30 11:15:42;;;;;;;;;9.00;6.00;;;;;11.13;89.24;103022.72;5037011;28;45831;-79
2022/01/30 11:18:08;;;;;;;;;12.00;8.00;;;;;11.14;88.64;103028.06;5056812;28;45293;-82
2022/01/30 11:20:35;;;;;;;;;9.50;6.00;;;;;11.20;88.71;103022.44;5057473;28;45499;-80
2022/01/30 11:23:02;;;;;;;;;7.25;3.75;;;;;11.27;88.16;103013.47;5057413;28;45958;-81
2022/01/30 11:25:33;;;;;;;;;7.25;5.25;;;;;11.35;86.92;103019.22;5056372;28;45451;-82
2022/01/30 11:28:03;;;;;;;;;7.25;5.25;;;;;11.41;85.21;102997.25;5058555;28;45468;-81
2022/01/30 11:30:30;;;;;;;;;6.75;6.00;;;;;11.53;86.31;103007.69;5037910;28;45528;-82
2022/01/30 11:32:57;;;;;;;;;15.00;14.25;;;;;11.59;86.37;102991.69;5056484;28;45296;-81
2022/01/30 11:35:23;;;;;;;;;8.25;6.25;;;;;11.71;85.21;102991.69;5063565;28;45266;-90
2022/01/30 11:37:50;;;;;;;;;9.50;6.50;;;;;11.83;84.37;102994.28;5068865;28;45208;-89
2022/01/30 11:40:19;;;;;;;;;7.50;4.50;;;;;11.88;83.33;102986.06;5047611;28;45281;-90
2022/01/30 11:42:49;;;;;;;;;6.75;5.50;;;;;11.98;83.50;102985.09;5064035;28;46404;-90
2022/01/30 11:45:28;;;;;;;;;7.75;5.50;;;;;12.04;82.75;102980.34;5046291;28;45298;-93
2022/01/30 11:48:02;;;;;;;;;8.50;7.00;;;;;12.09;81.61;102975.53;5046511;28;45435;-89
2022/01/30 11:50:31;;;;;;;;;6.00;4.00;;;;;12.13;81.43;102974.03;5071463;28;45352;-87
2022/01/30 11:52:58;;;;;;;;;8.00;6.25;;;;;12.13;80.34;102971.44;5072960;28;45152;-85
2022/01/30 11:55:50;;;;;;;;;8.00;8.00;;;;;12.07;80.55;102967.59;5072857;28;45757;-84
2022/01/30 11:58:35;;;;;;;;;7.25;4.75;;;;;12.03;80.47;102964.66;5047135;28;45337;-87
2022/01/30 12:01:13;;;;;;;;;7.00;6.75;;;;;12.04;80.49;102961.28;5065202;28;45247;-89
2022/01/30 12:03:51;;;;;;;;;9.50;9.00;;;;;12.03;81.67;102951.69;5064368;28;47144;-91
2022/01/30 12:06:19;;;;;;;;;9.00;6.75;;;;;12.03;81.85;102954.28;5063156;28;45366;-89
2022/01/30 12:08:46;;;;;;;;;7.75;5.00;;;;;11.95;81.59;102939.81;5061573;28;45499;-89
2022/01/30 12:11:34;;;;;;;;;11.00;7.00;;;;;12.02;80.68;102962.84;5064599;28;45604;-91